createdAt,value
2019-03-24T00:00:49.752Z,20.33
2019-03-24T00:03:18.636Z,21.53
2019-03-24T00:05:47.693Z,22.00
2019-03-24T00:08:16.534Z,20.73
2019-03-24T00:10:45.594Z,20.27
2019-03-24T00:13:14.519Z,21.43
2019-03-24T00:15:43.497Z,20.87
2019-03-24T00:18:12.445Z,20.50
2019-03-24T00:20:41.421Z,22.27
2019-03-24T00:23:10.417Z,20.03
2019-03-24T00:25:40.540Z,21.57
2019-03-24T00:28:09.506Z,19.67
2019-03-24T00:30:38.490Z,20.43
2019-03-24T00:33:07.504Z,21.40
2019-03-24T00:35:36.505Z,21.00
2019-03-24T00:38:05.587Z,19.50
2019-03-24T00:40:34.594Z,21.50
2019-03-24T00:43:03.521Z,19.90
2019-03-24T00:45:37.108Z,19.73
2019-03-24T00:48:04.112Z,20.17
2019-03-24T00:50:33.067Z,21.73
2019-03-24T00:53:02.047Z,21.50
2019-03-24T00:55:30.918Z,20.17
2019-03-24T00:57:59.918Z,21.00
2019-03-24T01:00:48.108Z,21.83
2019-03-24T01:03:17.359Z,22.03
2019-03-24T01:05:46.558Z,20.53
2019-03-24T01:08:15.582Z,20.50
2019-03-24T01:10:44.677Z,21.03
2019-03-24T01:13:13.904Z,19.93
2019-03-24T01:15:47.779Z,22.60
2019-03-24T01:18:13.652Z,21.27
2019-03-24T01:20:42.542Z,21.10
2019-03-24T01:23:11.545Z,20.17
2019-03-24T01:25:40.483Z,20.60
2019-03-24T01:28:09.416Z,20.80
2019-03-24T01:30:38.361Z,20.50
2019-03-24T01:33:07.191Z,21.13
2019-03-24T01:35:36.212Z,21.53
2019-03-24T01:38:05.201Z,19.67
2019-03-24T01:40:34.234Z,21.27
2019-03-24T01:43:03.218Z,21.30
2019-03-24T01:45:32.150Z,21.07
2019-03-24T01:48:01.079Z,20.13
2019-03-24T01:50:30.042Z,21.47
2019-03-24T01:52:59.011Z,22.00
2019-03-24T01:55:27.992Z,21.67
2019-03-24T01:57:56.970Z,21.63
2019-03-24T02:00:25.920Z,21.47
2019-03-24T02:02:54.941Z,20.50
2019-03-24T02:05:23.977Z,21.13
2019-03-24T02:07:52.859Z,21.07
2019-03-24T02:10:21.773Z,21.33
2019-03-24T02:12:50.797Z,20.70
2019-03-24T02:15:19.814Z,22.07
2019-03-24T02:17:48.787Z,20.97
2019-03-24T02:20:17.697Z,23.43
2019-03-24T02:22:46.691Z,21.20
2019-03-24T02:25:15.587Z,22.57
2019-03-24T02:27:44.525Z,22.83
2019-03-24T02:30:13.961Z,22.10
2019-03-24T02:32:42.991Z,22.73
2019-03-24T02:35:12.045Z,21.23
2019-03-24T02:37:42.803Z,22.73
2019-03-24T02:40:11.758Z,22.87
2019-03-24T02:42:40.712Z,21.00
2019-03-24T02:45:10.689Z,22.13
2019-03-24T02:47:39.681Z,22.03
2019-03-24T02:50:10.066Z,22.50
2019-03-24T02:52:39.077Z,22.07
2019-03-24T02:55:08.527Z,22.63
2019-03-24T02:57:37.472Z,22.43
2019-03-24T03:00:06.979Z,22.73
2019-03-24T03:02:36.024Z,22.37
2019-03-24T03:05:05.423Z,21.05
2019-03-24T03:07:34.447Z,22.67
2019-03-24T03:10:03.429Z,22.10
2019-03-24T03:12:32.382Z,21.07
2019-03-24T03:15:01.406Z,21.07
2019-03-24T03:17:30.398Z,22.15
2019-03-24T03:19:59.390Z,21.33
2019-03-24T03:22:28.390Z,22.70
2019-03-24T03:24:57.365Z,20.90
2019-03-24T03:27:26.306Z,21.20
2019-03-24T03:29:55.294Z,22.37
2019-03-24T03:32:24.267Z,20.97
2019-03-24T03:34:53.303Z,21.33
2019-03-24T03:37:22.244Z,21.85
2019-03-24T03:39:56.956Z,21.30
2019-03-24T03:42:21.944Z,21.47
2019-03-24T03:44:50.956Z,22.57
2019-03-24T03:47:19.897Z,21.20
2019-03-24T03:49:48.854Z,20.72
2019-03-24T03:52:17.855Z,21.93
2019-03-24T03:54:46.807Z,21.50
2019-03-24T03:57:15.767Z,20.62
2019-03-24T03:59:44.710Z,21.70
2019-03-24T04:02:13.686Z,20.77
2019-03-24T04:04:42.660Z,22.05
2019-03-24T04:07:11.691Z,20.92
2019-03-24T04:09:40.688Z,22.95
2019-03-24T04:12:09.650Z,20.72
2019-03-24T04:14:38.634Z,21.10
2019-03-24T04:17:08.198Z,19.60
2019-03-24T04:19:37.258Z,21.30
2019-03-24T04:22:06.190Z,20.80
2019-03-24T04:24:35.193Z,21.27
2019-03-24T04:27:04.142Z,20.48
2019-03-24T04:29:33.096Z,19.75
2019-03-24T04:32:02.059Z,21.60
2019-03-24T04:34:31.159Z,21.27
2019-03-24T04:37:00.211Z,21.57
2019-03-24T04:39:29.203Z,21.07
2019-03-24T04:41:58.231Z,22.25
2019-03-24T04:44:27.216Z,19.82
2019-03-24T04:46:56.238Z,20.70
2019-03-24T04:49:25.283Z,21.02
2019-03-24T04:51:54.347Z,21.48
2019-03-24T04:54:23.520Z,20.82
2019-03-24T04:56:52.546Z,21.52
2019-03-24T04:59:21.569Z,20.25
2019-03-24T05:01:50.659Z,20.50
2019-03-24T05:04:19.757Z,20.77
2019-03-24T05:06:48.752Z,21.17
2019-03-24T05:09:17.730Z,20.72
2019-03-24T05:11:46.703Z,21.02
2019-03-24T05:14:15.584Z,20.45
2019-03-24T05:16:44.451Z,21.55
2019-03-24T05:19:13.433Z,21.52
2019-03-24T05:21:42.326Z,20.92
2019-03-24T05:24:11.283Z,20.82
2019-03-24T05:26:40.283Z,21.60
2019-03-24T05:29:09.223Z,21.60
2019-03-24T05:31:38.184Z,21.25
2019-03-24T05:34:07.137Z,21.50
2019-03-24T05:36:36.013Z,20.72
2019-03-24T05:39:06.162Z,20.93
2019-03-24T05:41:35.181Z,22.00
2019-03-24T05:44:04.108Z,20.70
2019-03-24T05:46:32.985Z,20.02
2019-03-24T05:49:02.042Z,20.68
2019-03-24T05:51:30.967Z,20.03
2019-03-24T05:54:00.007Z,19.17
2019-03-24T05:56:28.955Z,19.60
2019-03-24T05:58:57.965Z,20.80
2019-03-24T06:01:26.915Z,19.27
2019-03-24T06:03:55.859Z,18.37
2019-03-24T06:06:24.781Z,18.60
2019-03-24T06:08:53.778Z,17.00
2019-03-24T06:11:22.689Z,20.13
2019-03-24T06:13:51.675Z,20.03
2019-03-24T06:16:20.641Z,20.80
2019-03-24T06:18:49.587Z,19.93
2019-03-24T06:21:18.573Z,21.17
2019-03-24T06:23:47.585Z,19.37
2019-03-24T06:26:16.593Z,20.27
2019-03-24T06:28:45.571Z,20.63
2019-03-24T06:31:14.529Z,20.53
2019-03-24T06:33:43.431Z,21.57
2019-03-24T06:36:12.436Z,21.80
2019-03-24T06:38:41.381Z,19.37
2019-03-24T06:41:10.377Z,17.67
2019-03-24T06:43:39.331Z,17.30
2019-03-24T06:46:08.499Z,18.03
2019-03-24T06:48:37.458Z,20.10
2019-03-24T06:51:06.369Z,19.23
2019-03-24T06:53:35.423Z,21.67
2019-03-24T06:56:04.364Z,21.03
2019-03-24T06:58:33.310Z,21.57
2019-03-24T07:01:02.314Z,21.73
2019-03-24T07:03:32.762Z,21.13
2019-03-24T07:06:01.769Z,24.70
2019-03-24T07:08:30.775Z,25.13
2019-03-24T07:10:59.775Z,26.37
2019-03-24T07:13:28.841Z,22.90
2019-03-24T07:15:57.934Z,25.77
2019-03-24T07:18:26.957Z,28.30
2019-03-24T07:20:55.917Z,26.60
2019-03-24T07:23:24.821Z,27.70
2019-03-24T07:25:53.782Z,31.00
2019-03-24T07:28:24.885Z,26.63
2019-03-24T07:30:53.439Z,29.50
2019-03-24T07:33:22.445Z,31.50
2019-03-24T07:35:51.441Z,28.50
2019-03-24T07:38:20.411Z,28.00
2019-03-24T07:40:49.426Z,28.43
2019-03-24T07:43:18.485Z,29.90
2019-03-24T07:45:47.533Z,27.43
2019-03-24T07:48:19.285Z,24.27
2019-03-24T07:50:47.221Z,29.47
2019-03-24T07:53:16.227Z,25.40
2019-03-24T07:55:45.231Z,27.47
2019-03-24T07:58:14.295Z,28.73
2019-03-24T08:00:43.301Z,27.17
2019-03-24T08:03:12.321Z,35.00
2019-03-24T08:05:41.446Z,29.47
2019-03-24T08:08:10.489Z,37.27
2019-03-24T08:10:39.521Z,37.00
2019-03-24T08:13:08.641Z,30.87
2019-03-24T08:15:37.692Z,38.30
2019-03-24T08:18:06.632Z,34.37
2019-03-24T08:20:35.629Z,35.53
2019-03-24T08:23:04.663Z,35.70
2019-03-24T08:25:33.775Z,32.60
2019-03-24T08:28:02.798Z,29.13
2019-03-24T08:30:32.619Z,30.67
2019-03-24T08:33:01.539Z,35.30
2019-03-24T08:35:31.630Z,34.03
2019-03-24T08:38:00.673Z,30.63
2019-03-24T08:40:29.671Z,32.47
2019-03-24T08:42:58.893Z,33.17
2019-03-24T08:45:28.575Z,32.23
2019-03-24T08:47:57.945Z,30.17
2019-03-24T08:50:26.978Z,31.17
2019-03-24T08:52:58.607Z,37.23
2019-03-24T08:55:27.651Z,35.80
2019-03-24T08:58:04.768Z,34.80
2019-03-24T09:00:33.813Z,33.63
2019-03-24T09:03:02.745Z,36.43
2019-03-24T09:05:33.723Z,36.47
2019-03-24T09:08:02.435Z,35.77
2019-03-24T09:10:31.439Z,38.83
2019-03-24T09:13:01.518Z,38.23
2019-03-24T09:15:30.492Z,36.77
2019-03-24T09:17:59.490Z,38.20
2019-03-24T09:20:28.421Z,36.53
2019-03-24T09:22:57.391Z,34.03
2019-03-24T09:25:26.452Z,36.17
2019-03-24T09:27:55.428Z,35.93
2019-03-24T09:30:28.061Z,34.83
2019-03-24T09:32:57.131Z,36.77
2019-03-24T09:35:26.196Z,36.67
2019-03-24T09:37:55.222Z,34.27
2019-03-24T09:40:27.504Z,36.00
2019-03-24T09:42:57.076Z,34.80
2019-03-24T09:45:26.051Z,36.17
2019-03-24T09:47:55.153Z,34.30
2019-03-24T09:50:24.304Z,34.77
2019-03-24T09:52:53.250Z,34.03
2019-03-24T09:55:24.186Z,34.27
2019-03-24T09:57:55.347Z,32.60
2019-03-24T10:00:24.417Z,35.63
2019-03-24T10:02:53.491Z,36.30
2019-03-24T10:05:22.531Z,34.73
2019-03-24T10:07:51.477Z,33.77
2019-03-24T10:10:20.483Z,32.80
2019-03-24T10:12:49.514Z,33.80
2019-03-24T10:15:18.520Z,34.20
2019-03-24T10:17:47.523Z,31.73
2019-03-24T10:20:16.567Z,33.50
2019-03-24T10:22:45.509Z,30.70
2019-03-24T10:25:14.464Z,31.90
2019-03-24T10:27:43.439Z,32.70
2019-03-24T10:30:12.447Z,30.67
2019-03-24T10:32:41.437Z,30.87
2019-03-24T10:35:10.372Z,33.03
2019-03-24T10:37:39.321Z,30.23
2019-03-24T10:40:08.859Z,30.80
2019-03-24T10:42:38.588Z,30.77
2019-03-24T10:45:09.134Z,33.27
2019-03-24T10:47:38.113Z,32.17
2019-03-24T10:50:09.189Z,30.87
2019-03-24T10:52:38.220Z,30.77
2019-03-24T10:55:08.335Z,31.13
2019-03-24T10:57:37.569Z,32.67
2019-03-24T11:00:07.427Z,31.10
2019-03-24T11:02:39.479Z,31.60
2019-03-24T11:05:08.526Z,32.00
2019-03-24T11:07:38.795Z,33.33
2019-03-24T11:10:08.185Z,33.23
2019-03-24T11:12:37.269Z,32.60
2019-03-24T11:15:07.226Z,30.30
2019-03-24T11:17:36.191Z,32.47
2019-03-24T11:20:05.615Z,31.60
2019-03-24T11:22:34.785Z,31.07
2019-03-24T11:25:04.194Z,32.10
2019-03-24T11:27:33.217Z,32.43
2019-03-24T11:30:02.213Z,32.93
2019-03-24T11:32:31.333Z,32.57
2019-03-24T11:35:00.510Z,35.07
2019-03-24T11:37:29.629Z,31.70
2019-03-24T11:39:58.661Z,29.30
2019-03-24T11:42:27.711Z,30.77
2019-03-24T11:44:56.835Z,30.67
2019-03-24T11:47:26.801Z,29.63
2019-03-24T11:49:56.152Z,28.33
2019-03-24T11:52:25.130Z,30.70
2019-03-24T11:54:54.108Z,30.60
2019-03-24T11:57:23.120Z,29.50
2019-03-24T11:59:52.075Z,31.83
2019-03-24T12:02:21.122Z,30.53
2019-03-24T12:04:50.189Z,31.33
2019-03-24T12:07:19.178Z,27.73
2019-03-24T12:09:48.134Z,28.07
2019-03-24T12:12:17.258Z,27.83
2019-03-24T12:14:46.263Z,27.47
2019-03-24T12:17:15.286Z,28.33
2019-03-24T12:19:56.272Z,29.53
2019-03-24T12:22:15.404Z,28.80
2019-03-24T12:24:44.909Z,29.37
2019-03-24T12:27:13.931Z,28.60
2019-03-24T12:29:42.907Z,29.70
2019-03-24T12:32:11.932Z,29.57
2019-03-24T12:34:40.915Z,27.93
2019-03-24T12:37:09.863Z,27.07
2019-03-24T12:39:39.081Z,28.37
2019-03-24T12:42:08.146Z,30.10
2019-03-24T12:44:37.161Z,29.10
2019-03-24T12:47:06.246Z,25.93
2019-03-24T12:49:35.204Z,30.63
2019-03-24T12:52:04.158Z,30.63
2019-03-24T12:54:33.377Z,28.93
2019-03-24T12:57:02.472Z,25.03
2019-03-24T12:59:31.444Z,26.17
2019-03-24T13:02:00.386Z,26.80
2019-03-24T13:04:29.234Z,27.27
2019-03-24T13:06:58.225Z,25.37
2019-03-24T13:09:27.223Z,26.17
2019-03-24T13:11:56.195Z,26.10
2019-03-24T13:14:25.232Z,28.60
2019-03-24T13:16:54.224Z,26.83
2019-03-24T13:19:23.210Z,24.10
2019-03-24T13:21:52.333Z,24.93
2019-03-24T13:24:21.298Z,24.93
2019-03-24T13:26:50.257Z,24.90
2019-03-24T13:29:19.299Z,23.43
2019-03-24T13:31:48.989Z,23.50
2019-03-24T13:34:18.091Z,23.93
2019-03-24T13:36:47.131Z,25.17
2019-03-24T13:39:16.137Z,23.17
2019-03-24T13:41:45.138Z,24.97
2019-03-24T13:44:14.110Z,24.73
2019-03-24T13:46:45.406Z,24.43
2019-03-24T13:49:14.752Z,24.13
2019-03-24T13:51:43.810Z,24.67
2019-03-24T13:54:12.898Z,26.40
2019-03-24T13:56:41.898Z,26.60
2019-03-24T13:59:10.867Z,26.80
2019-03-24T14:01:39.825Z,25.40
2019-03-24T14:04:08.847Z,25.33
2019-03-24T14:06:37.736Z,26.03
2019-03-24T14:09:08.223Z,26.33
2019-03-24T14:11:37.178Z,26.17
2019-03-24T14:14:06.082Z,25.13
2019-03-24T14:16:35.063Z,24.07
2019-03-24T14:19:04.047Z,24.27
2019-03-24T14:21:33.009Z,23.40
2019-03-24T14:24:01.961Z,23.27
2019-03-24T14:26:30.908Z,23.53
2019-03-24T14:28:59.895Z,24.17
2019-03-24T14:31:28.886Z,22.07
2019-03-24T14:33:57.857Z,25.97
2019-03-24T14:36:26.790Z,25.33
2019-03-24T14:38:55.761Z,25.10
2019-03-24T14:41:24.766Z,24.50
2019-03-24T14:43:53.750Z,24.33
2019-03-24T14:46:22.695Z,24.77
2019-03-24T14:48:51.650Z,26.07
2019-03-24T14:51:20.627Z,27.60
2019-03-24T14:53:49.659Z,26.83
2019-03-24T14:56:18.586Z,26.10
2019-03-24T14:58:47.566Z,28.37
2019-03-24T15:01:19.500Z,27.07
2019-03-24T15:03:48.467Z,27.97
2019-03-24T15:06:17.418Z,28.13
2019-03-24T15:08:46.365Z,28.10
2019-03-24T15:11:15.321Z,28.13
2019-03-24T15:13:44.302Z,29.60
2019-03-24T15:16:32.122Z,26.40
2019-03-24T15:19:01.072Z,31.87
2019-03-24T15:21:30.024Z,29.83
2019-03-24T15:23:59.041Z,30.53
2019-03-24T15:26:28.047Z,31.10
2019-03-24T15:28:57.099Z,29.90
2019-03-24T15:31:26.093Z,31.33
2019-03-24T15:33:55.007Z,31.90
2019-03-24T15:36:24.053Z,30.73
2019-03-24T15:38:53.067Z,31.13
2019-03-24T15:41:22.051Z,29.93
2019-03-24T15:43:50.960Z,27.60
2019-03-24T15:46:20.029Z,27.97
2019-03-24T15:48:50.174Z,29.20
2019-03-24T15:51:19.633Z,28.30
2019-03-24T15:53:48.669Z,28.67
2019-03-24T15:56:17.607Z,28.03
2019-03-24T15:58:46.646Z,30.90
2019-03-24T16:01:15.617Z,27.17
2019-03-24T16:03:44.637Z,30.53
2019-03-24T16:06:13.591Z,29.10
2019-03-24T16:08:42.665Z,30.20
2019-03-24T16:11:11.597Z,29.73
2019-03-24T16:13:40.576Z,30.43
2019-03-24T16:16:09.603Z,30.00
2019-03-24T16:18:38.545Z,31.20
2019-03-24T16:21:07.451Z,32.27
2019-03-24T16:23:38.177Z,34.53
2019-03-24T16:26:07.337Z,36.00
2019-03-24T16:28:38.011Z,34.07
2019-03-24T16:31:07.127Z,36.87
2019-03-24T16:33:36.288Z,38.13
2019-03-24T16:36:05.495Z,37.27
2019-03-24T16:38:34.724Z,37.07
2019-03-24T16:41:03.749Z,35.80
2019-03-24T16:43:35.106Z,36.37
2019-03-24T16:46:04.609Z,37.07
2019-03-24T16:48:36.947Z,37.23
2019-03-24T16:51:05.022Z,35.17
2019-03-24T16:53:34.425Z,37.27
2019-03-24T16:56:03.715Z,35.53
2019-03-24T16:58:32.909Z,37.37
2019-03-24T17:01:02.048Z,35.97
2019-03-24T17:03:52.940Z,36.50
2019-03-24T17:06:25.061Z,36.20
2019-03-24T17:12:23.429Z,35.07
2019-03-24T17:14:53.847Z,36.10
2019-03-24T17:17:22.836Z,35.57
2019-03-24T17:19:51.911Z,36.83
2019-03-24T17:30:29.437Z,33.37
2019-03-24T17:32:58.442Z,32.93
2019-03-24T17:35:27.468Z,33.43
2019-03-24T17:37:56.562Z,33.97
2019-03-24T17:40:25.482Z,33.27
2019-03-24T17:42:55.376Z,32.57
2019-03-24T17:45:25.405Z,34.20
2019-03-24T17:47:54.451Z,34.13
2019-03-24T17:50:25.231Z,33.97
2019-03-24T17:52:54.380Z,34.73
2019-03-24T17:55:27.904Z,35.10
2019-03-24T17:57:54.100Z,36.43
2019-03-24T18:00:33.338Z,37.20
2019-03-24T18:03:01.904Z,38.17
2019-03-24T18:05:30.945Z,35.63
2019-03-24T18:08:00.057Z,37.93
2019-03-24T18:10:29.158Z,36.43
2019-03-24T18:12:58.511Z,36.50
2019-03-24T18:15:27.947Z,35.40
2019-03-24T18:17:57.059Z,37.80
2019-03-24T18:20:30.147Z,36.77
2019-03-24T18:22:59.148Z,35.47
2019-03-24T18:25:28.119Z,36.80
2019-03-24T18:27:57.168Z,37.00
2019-03-24T18:30:27.146Z,36.77
2019-03-24T18:32:56.808Z,37.77
2019-03-24T18:35:26.674Z,37.70
2019-03-24T18:37:56.446Z,36.93
2019-03-24T18:40:25.892Z,38.03
2019-03-24T18:42:55.300Z,36.80
2019-03-24T18:45:24.380Z,35.90
2019-03-24T18:47:53.751Z,37.47
2019-03-24T18:50:23.550Z,36.23
2019-03-24T18:52:52.597Z,36.47
2019-03-24T18:55:21.573Z,37.77
2019-03-24T18:57:50.640Z,37.63
2019-03-24T19:00:20.779Z,37.97
2019-03-24T19:02:49.954Z,36.17
2019-03-24T19:05:22.290Z,37.20
2019-03-24T19:07:54.182Z,38.23
2019-03-24T19:10:23.737Z,36.50
2019-03-24T19:12:53.146Z,36.57
2019-03-24T19:15:22.557Z,36.60
2019-03-24T19:17:51.646Z,36.27
2019-03-24T19:20:20.614Z,37.37
2019-03-24T19:22:49.633Z,37.00
2019-03-24T19:25:18.674Z,38.17
2019-03-24T19:27:47.644Z,37.30
2019-03-24T19:30:16.833Z,36.10
2019-03-24T19:32:46.134Z,37.63
2019-03-24T19:35:15.455Z,38.77
2019-03-24T19:37:46.314Z,39.40
2019-03-24T19:40:25.847Z,39.03
2019-03-24T19:42:55.152Z,36.27
2019-03-24T19:45:24.316Z,39.93
2019-03-24T19:47:53.505Z,38.70
2019-03-24T19:50:22.662Z,39.40
2019-03-24T19:52:51.871Z,40.97
2019-03-24T19:55:21.111Z,38.50
2019-03-24T19:57:50.320Z,37.50
2019-03-24T20:00:19.839Z,36.20
2019-03-24T20:02:48.945Z,38.17
2019-03-24T20:05:18.105Z,39.77
2019-03-24T20:07:48.278Z,37.63
2019-03-24T20:10:17.633Z,36.90
2019-03-24T20:12:46.964Z,39.00
2019-03-24T20:15:16.109Z,37.60
2019-03-24T20:17:45.332Z,37.73
2019-03-24T20:20:14.773Z,40.97
2019-03-24T20:22:43.982Z,37.23
2019-03-24T20:25:13.176Z,39.60
2019-03-24T20:27:42.316Z,38.37
2019-03-24T20:30:12.307Z,41.47
2019-03-24T20:32:41.708Z,39.10
2019-03-24T20:35:10.977Z,39.77
2019-03-24T20:37:40.185Z,39.97
2019-03-24T20:40:09.728Z,41.87
2019-03-24T20:42:38.866Z,40.00
2019-03-24T20:45:08.170Z,38.77
2019-03-24T20:47:37.397Z,41.00
2019-03-24T20:50:07.151Z,38.67
2019-03-24T20:52:36.097Z,40.20
2019-03-24T20:55:05.479Z,42.17
2019-03-24T20:57:34.386Z,41.73
2019-03-24T21:00:03.505Z,40.23
2019-03-24T21:02:32.489Z,40.33
2019-03-24T21:05:01.502Z,39.97
2019-03-24T21:07:30.545Z,39.63
2019-03-24T21:09:59.561Z,41.00
2019-03-24T21:12:28.623Z,42.30
2019-03-24T21:14:57.698Z,43.17
2019-03-24T21:17:26.740Z,39.83
2019-03-24T21:19:56.058Z,41.10
2019-03-24T21:22:25.198Z,41.23
2019-03-24T21:24:54.184Z,41.40
2019-03-24T21:27:23.217Z,42.47
2019-03-24T21:29:52.067Z,42.17
2019-03-24T21:32:21.146Z,39.97
2019-03-24T21:34:49.975Z,41.60
2019-03-24T21:37:18.951Z,40.93
2019-03-24T21:39:47.917Z,41.97
2019-03-24T21:42:16.914Z,42.53
2019-03-24T21:44:45.878Z,41.87
2019-03-24T21:47:14.915Z,42.00
2019-03-24T21:49:43.891Z,41.03
2019-03-24T21:52:12.918Z,41.57
2019-03-24T21:54:42.010Z,43.87
2019-03-24T21:57:10.841Z,43.53
2019-03-24T21:59:39.775Z,41.20
2019-03-24T22:02:08.845Z,45.03
2019-03-24T22:04:37.893Z,42.77
2019-03-24T22:07:06.874Z,44.23
2019-03-24T22:09:35.815Z,44.67
2019-03-24T22:12:04.872Z,45.33
2019-03-24T22:14:34.418Z,43.33
2019-03-24T22:17:03.378Z,44.10
2019-03-24T22:19:32.398Z,46.00
2019-03-24T22:22:01.435Z,43.97
2019-03-24T22:24:30.531Z,44.13
2019-03-24T22:27:02.614Z,43.77
2019-03-24T22:29:31.675Z,44.77
2019-03-24T22:32:02.484Z,44.23
2019-03-24T22:34:31.533Z,45.17
2019-03-24T22:37:02.231Z,43.70
2019-03-24T22:39:31.325Z,42.70
2019-03-24T22:42:00.479Z,44.03
2019-03-24T22:44:32.321Z,43.47
2019-03-24T22:47:01.411Z,43.83
2019-03-24T22:49:30.463Z,40.10
2019-03-24T22:52:07.348Z,40.90
2019-03-24T22:54:30.567Z,41.43
2019-03-24T22:56:59.609Z,42.20
2019-03-24T22:59:28.719Z,42.27
2019-03-24T23:02:00.575Z,41.03
2019-03-24T23:04:29.655Z,42.53
2019-03-24T23:06:59.945Z,43.07
2019-03-24T23:09:29.047Z,42.37
2019-03-24T23:11:58.113Z,43.47
2019-03-24T23:14:27.065Z,40.57
2019-03-24T23:16:56.140Z,40.73
2019-03-24T23:19:25.247Z,41.23
2019-03-24T23:21:54.253Z,42.33
2019-03-24T23:24:23.277Z,41.20
2019-03-24T23:26:52.241Z,41.67
2019-03-24T23:29:21.235Z,40.37
2019-03-24T23:31:50.286Z,40.13
2019-03-24T23:34:19.283Z,40.27
2019-03-24T23:36:48.198Z,41.53
2019-03-24T23:39:18.348Z,41.97
2019-03-24T23:41:47.311Z,42.20
2019-03-24T23:44:16.301Z,41.90
2019-03-24T23:46:45.401Z,40.50
2019-03-24T23:49:14.441Z,39.83
2019-03-24T23:51:43.497Z,39.97
2019-03-24T23:54:12.486Z,40.20
2019-03-24T23:56:41.589Z,41.27
2019-03-24T23:59:10.633Z,40.13
